Time;durP1;ratioP1;P1;durP2;ratioP2;P2;SDS_P1;SDS_P2;PMS_P1;PMS_P2;Temp;Humidity;BMP_temperature;BMP_pressure;BME280_temperature;BME280_humidity;BME280_pressure;Samples;Min_cycle;Max_cycle;Signal;HPM_P1;HPM_P2
2023/10/11 10:04:07;;;;;;;21.20;7.60;;;;;;;14.57;71.26;99350.41;102793;1289;635888;-78
2023/10/11 10:07:20;;;;;;;17.60;6.40;;;;;;;14.59;71.04;99342.41;105109;1273;94755;-79
2023/10/11 10:10:18;;;;;;;20.90;6.70;;;;;;;14.62;71.02;99331.30;104974;1264;94669;-78
2023/10/11 10:13:24;;;;;;;16.80;5.90;;;;;;;14.64;71.00;99334.11;105070;1264;106778;-78
2023/10/11 10:16:05;;;;;;;17.20;6.50;;;;;;;14.66;70.96;99333.95;105166;1254;298075;-79
2023/10/11 10:18:52;;;;;;;17.60;6.20;;;;;;;14.69;71.13;99338.21;105540;1257;108152;-79
2023/10/11 10:22:14;;;;;;;23.00;7.30;;;;;;;14.69;70.90;99329.92;105335;1260;94613;-77
2023/10/11 10:25:22;;;;;;;17.70;6.80;;;;;;;14.70;70.95;99329.71;105728;1256;94368;-79
2023/10/11 10:28:03;;;;;;;16.90;6.40;;;;;;;14.73;70.95;99325.88;105546;1268;107325;-80
2023/10/11 10:31:16;;;;;;;;;;;;;;;;;;;;;
2023/10/11 10:34:29;;;;;;;17.10;6.70;;;;;;;14.85;71.08;99329.71;105523;1258;107594;-79
2023/10/11 10:37:06;;;;;;;19.90;6.70;;;;;;;14.91;71.02;99332.02;105485;1259;96119;-79
2023/10/11 10:40:26;;;;;;;19.00;6.50;;;;;;;14.96;70.96;99329.66;105400;1255;95211;-79
2023/10/11 10:43:08;;;;;;;15.00;6.60;;;;;;;15.00;70.89;99327.00;105666;1259;108535;-87
2023/10/11 10:45:55;;;;;;;17.70;7.40;;;;;;;15.04;70.92;99322.40;105475;1254;95801;-78
2023/10/11 10:49:40;;;;;;;14.80;5.90;;;;;;;15.12;70.83;99320.03;102219;1294;636220;-78
2023/10/11 10:52:41;;;;;;;19.00;6.50;;;;;;;15.13;70.78;99321.73;104980;1261;95347;-79
2023/10/11 10:55:17;;;;;;;17.40;6.20;;;;;;;15.16;70.69;99318.64;104611;1262;94390;-78
2023/10/11 10:57:51;;;;;;;17.60;6.50;;;;;;;15.17;70.68;99318.48;104787;1263;107232;-80
2023/10/11 11:00:52;;;;;;;19.20;6.70;;;;;;;15.20;70.69;99313.13;108141;1262;95065;-80
2023/10/11 11:03:31;;;;;;;16.00;6.80;;;;;;;15.19;70.35;99305.65;105871;1260;2873505;-80
2023/10/11 11:06:11;;;;;;;19.90;6.80;;;;;;;15.18;70.46;99305.76;108305;1258;92275;-80
2023/10/11 11:09:12;;;;;;;;;;;;;;;;;;;;;
2023/10/11 11:11:53;;;;;;;17.20;6.60;;;;;;;15.24;70.45;99302.09;108374;1257;105325;-79
2023/10/11 11:14:29;;;;;;;18.00;7.00;;;;;;;15.25;70.29;99301.92;108412;1257;94320;-79
2023/10/11 11:17:09;;;;;;;15.70;6.30;;;;;;;15.26;70.15;99297.58;108317;1257;107160;-79
2023/10/11 11:20:18;;;;;;;17.10;6.30;;;;;;;15.26;70.28;99298.85;108293;1257;93295;-79
2023/10/11 11:23:34;;;;;;;17.20;6.00;;;;;;;15.28;70.16;99294.53;108423;1257;92922;-79
2023/10/11 11:26:15;;;;;;;16.90;6.70;;;;;;;15.30;69.96;99293.12;108538;1254;108806;-80
2023/10/11 11:32:23;;;;;;;19.10;6.60;;;;;;;15.36;70.11;99295.05;108438;1254;107938;-79
2023/10/11 11:35:10;;;;;;;19.00;7.20;;;;;;;15.39;70.16;99291.98;108472;1254;92913;-80
2023/10/11 11:38:12;;;;;;;22.00;7.50;;;;;;;15.39;69.94;99290.36;108477;1254;92960;-79
2023/10/11 11:41:08;;;;;;;17.80;7.00;;;;;;;15.39;70.14;99293.97;108706;1253;108608;-79
2023/10/11 11:44:19;;;;;;;16.00;6.30;;;;;;;15.35;69.89;99288.70;108537;1254;97031;-79
2023/10/11 11:47:25;;;;;;;15.80;6.00;;;;;;;15.34;69.81;99285.60;108673;1254;107662;-79
2023/10/11 11:50:05;;;;;;;19.00;6.80;;;;;;;15.36;69.98;99289.05;108501;1253;93107;-79
2023/10/11 11:52:50;;;;;;;18.40;7.00;;;;;;;15.37;69.93;99290.00;108672;1253;92916;-78
2023/10/11 11:55:22;;;;;;;18.80;7.10;;;;;;;15.40;69.83;99284.33;108623;1253;108682;-79
2023/10/11 11:57:52;;;;;;;19.60;7.10;;;;;;;15.43;70.01;99279.63;108536;1253;94992;-79
2023/10/11 12:03:04;;;;;;;19.00;7.10;;;;;;;15.46;69.57;99276.84;108668;1253;92986;-78
2023/10/11 12:05:43;;;;;;;18.90;6.60;;;;;;;15.48;69.87;99273.26;108756;1253;92994;-79
2023/10/11 12:08:20;;;;;;;20.20;8.10;;;;;;;15.53;69.82;99272.55;108579;1253;108575;-79
2023/10/11 12:10:58;;;;;;;17.70;7.00;;;;;;;15.56;69.70;99269.56;108549;1253;95771;-78
2023/10/11 12:14:03;;;;;;;18.40;7.60;;;;;;;15.60;69.80;99270.66;108753;1253;107492;-79
2023/10/11 12:16:48;;;;;;;20.10;7.40;;;;;;;15.64;69.60;99266.48;108495;1253;92891;-79
2023/10/11 12:19:35;;;;;;;18.40;7.50;;;;;;;15.66;69.46;99269.73;108687;1253;93783;-79
2023/10/11 12:22:25;;;;;;;17.60;7.20;;;;;;;15.69;69.63;99269.06;108690;1253;109428;-79
2023/10/11 12:25:47;;;;;;;;;;;;;;;;;;;;;
2023/10/11 12:28:37;;;;;;;22.20;8.70;;;;;;;15.76;69.55;99267.36;108784;1253;108709;-79
2023/10/11 12:31:23;;;;;;;19.50;7.10;;;;;;;15.82;69.57;99259.88;108569;1253;93265;-79
2023/10/11 12:34:01;;;;;;;19.40;7.10;;;;;;;15.87;69.55;99262.83;108514;1252;92893;-79
2023/10/11 12:36:52;;;;;;;22.70;8.30;;;;;;;15.91;69.61;99254.91;108513;1254;109513;-79
2023/10/11 12:39:37;;;;;;;19.50;7.30;;;;;;;15.95;69.62;99255.17;108596;1253;96147;-81
2023/10/11 12:42:37;;;;;;;16.20;7.20;;;;;;;15.97;69.43;99254.94;108611;1253;107912;-79
2023/10/11 12:45:16;;;;;;;18.00;7.20;;;;;;;15.98;69.37;99253.84;108808;1253;93234;-81
2023/10/11 12:48:07;;;;;;;19.30;7.10;;;;;;;16.00;69.28;99253.28;108687;1253;92946;-79
2023/10/11 12:50:43;;;;;;;21.10;7.70;;;;;;;16.03;69.40;99254.41;108589;1253;107079;-78
2023/10/11 12:53:21;;;;;;;18.60;7.20;;;;;;;16.07;69.38;99256.69;108533;1253;95720;-79
2023/10/11 12:55:56;;;;;;;17.40;7.70;;;;;;;16.10;69.03;99255.18;108748;1253;107709;-79
2023/10/11 12:58:38;;;;;;;21.40;8.40;;;;;;;16.11;69.19;99255.98;108524;1254;92990;-79
2023/10/11 13:01:36;;;;;;;21.30;8.60;;;;;;;16.10;68.96;99253.27;108725;1253;92897;-79
2023/10/11 13:04:36;;;;;;;20.50;8.00;;;;;;;16.05;69.17;99250.65;108693;1253;108484;-79
2023/10/11 13:07:37;;;;;;;;;;;;;;;;;;;;;
2023/10/11 13:10:12;;;;;;;21.40;7.80;;;;;;;16.01;69.17;99245.80;108675;1253;107644;-79
2023/10/11 13:12:57;;;;;;;;;;;;;;;;;;;;;
2023/10/11 13:15:41;;;;;;;24.00;8.90;;;;;;;16.01;69.07;99241.55;108696;1253;93038;-79
2023/10/11 13:18:19;;;;;;;21.00;8.00;;;;;;;15.99;68.75;99241.70;108582;1253;108030;-79
2023/10/11 13:21:33;;;;;;;23.60;8.20;;;;;;;15.97;68.89;99241.18;108516;1255;95376;-79
2023/10/11 13:24:39;;;;;;;22.50;8.60;;;;;;;15.97;69.05;99239.58;108600;1254;107658;-79
2023/10/11 13:27:21;;;;;;;18.20;7.00;;;;;;;15.99;69.07;99232.43;108735;1254;92935;-79
2023/10/11 13:30:14;;;;;;;20.80;8.80;;;;;;;15.95;68.67;99228.70;108676;1254;93196;-79
2023/10/11 13:33:00;;;;;;;21.10;8.00;;;;;;;15.92;68.73;99231.41;108601;1254;108681;-80
2023/10/11 13:35:59;;;;;;;21.00;7.70;;;;;;;15.91;68.88;99227.80;108599;1254;95568;-79
2023/10/11 13:38:32;;;;;;;20.10;7.60;;;;;;;15.87;68.65;99226.17;108645;1254;108359;-79
2023/10/11 13:41:16;;;;;;;21.30;7.50;;;;;;;15.85;68.96;99227.77;108482;1254;93003;-79
2023/10/11 13:43:53;;;;;;;20.70;8.00;;;;;;;15.83;68.72;99222.25;108596;1253;92923;-79
2023/10/11 13:47:03;;;;;;;;;;;;;;;;;;;;;
2023/10/11 13:49:59;;;;;;;21.50;9.40;;;;;;;15.74;68.78;99224.45;108709;1253;95295;-79
2023/10/11 13:52:36;;;;;;;23.50;9.30;;;;;;;15.70;68.58;99223.23;108649;1253;107293;-79
2023/10/11 13:55:11;;;;;;;24.20;9.00;;;;;;;15.65;68.51;99225.87;108510;1254;92888;-79
2023/10/11 13:57:52;;;;;;;22.50;8.90;;;;;;;15.56;68.46;99227.88;108776;1253;93347;-79
2023/10/11 14:05:54;;;;;;;22.70;8.80;;;;;;;15.32;68.46;99218.80;108631;1254;108233;-79
2023/10/11 14:08:47;;;;;;;22.50;9.00;;;;;;;15.23;68.48;99213.01;108645;1253;92902;-79
2023/10/11 14:11:23;;;;;;;24.60;10.00;;;;;;;15.16;68.60;99213.98;108534;1253;94168;-79
2023/10/11 14:14:04;;;;;;;;;;;;;;;;;;;;;
2023/10/11 14:17:05;;;;;;;23.20;9.80;;;;;;;15.07;68.52;99210.34;108727;1253;95669;-82
2023/10/11 14:20:31;;;;;;;;;;;;;;;;;;;;;
2023/10/11 14:23:15;;;;;;;;;;;;;;;;;;;;;
2023/10/11 14:26:00;;;;;;;24.10;10.20;;;;;;;14.88;68.47;99200.88;108567;1253;93364;-79
2023/10/11 14:28:34;;;;;;;26.50;10.20;;;;;;;14.83;68.50;99201.48;108755;1253;108365;-79
2023/10/11 14:31:06;;;;;;;25.20;10.50;;;;;;;14.79;68.36;99204.77;108659;1254;95483;-79
2023/10/11 14:33:55;;;;;;;;;;;;;;;;;;;;;
2023/10/11 14:37:03;;;;;;;23.10;9.20;;;;;;;14.68;68.52;99200.45;108549;1253;92960;-80
2023/10/11 14:39:49;;;;;;;25.80;11.60;;;;;;;14.63;68.42;99198.79;108606;1253;92871;-79
2023/10/11 14:42:22;;;;;;;25.40;10.40;;;;;;;14.60;68.49;99203.34;108536;1253;109107;-79
2023/10/11 14:45:22;;;;;;;24.70;10.50;;;;;;;14.52;68.61;99200.61;108787;1253;95779;-79
2023/10/11 14:47:52;;;;;;;26.40;10.90;;;;;;;14.44;68.69;99194.12;108778;1253;107960;-79
2023/10/11 14:50:35;;;;;;;21.70;9.50;;;;;;;14.39;68.57;99193.89;108770;1254;93308;-80
2023/10/11 14:53:20;;;;;;;25.30;10.70;;;;;;;14.34;68.56;99190.17;108746;1253;93530;-79
2023/10/11 14:55:55;;;;;;;25.30;10.70;;;;;;;14.30;68.73;99183.77;108719;1253;109984;-79
2023/10/11 14:58:30;;;;;;;21.80;10.30;;;;;;;14.26;68.73;99178.55;108763;1253;95416;-79
2023/10/11 15:02:23;;;;;;;;;;;;;;;;;;;;;
2023/10/11 15:04:38;;;;;;;;;;;;;;;;;;;;;
2023/10/11 15:07:21;;;;;;;23.00;10.30;;;;;;;14.08;68.66;99181.52;108774;1253;92848;-79
2023/10/11 15:13:11;;;;;;;25.90;11.10;;;;;;;13.97;68.73;99182.27;108598;1254;97213;-84
2023/10/11 15:16:03;;;;;;;26.10;11.70;;;;;;;13.95;68.70;99185.45;108561;1253;108410;-79
2023/10/11 15:18:42;;;;;;;25.20;11.50;;;;;;;13.92;68.76;99186.23;108554;1253;93309;-79
2023/10/11 15:21:55;;;;;;;27.80;12.10;;;;;;;13.88;68.72;99187.84;108787;1253;92899;-79
2023/10/11 15:24:44;;;;;;;;;;;;;;;;;;;;;
2023/10/11 15:27:15;;;;;;;24.50;11.00;;;;;;;13.81;68.72;99193.58;108648;1253;95520;-78
2023/10/11 15:29:56;;;;;;;28.20;11.90;;;;;;;13.77;68.76;99198.23;108560;1253;107343;-79
2023/10/11 16:17:38;;;;;;;25.90;12.30;;;;;;;13.69;69.02;99203.00;103482;1286;648818;-81
2023/10/11 16:20:12;;;;;;;25.10;11.80;;;;;;;13.66;69.20;99201.58;105265;1269;175259;-81
2023/10/11 16:22:42;;;;;;;27.00;13.20;;;;;;;13.59;69.25;99205.08;104802;1272;94390;-82
2023/10/11 16:25:18;;;;;;;26.50;12.10;;;;;;;13.49;69.38;99204.46;105247;1265;107258;-80
2023/10/11 16:27:50;;;;;;;26.60;12.10;;;;;;;13.39;69.45;99197.73;105141;1259;95513;-84
2023/10/11 16:30:28;;;;;;;25.90;12.60;;;;;;;13.32;69.82;99205.11;105069;1259;108317;-83
2023/10/11 16:32:56;;;;;;;31.70;12.60;;;;;;;13.24;69.60;99211.23;105048;1260;94307;-80
2023/10/11 16:35:41;;;;;;;26.50;12.30;;;;;;;13.17;69.73;99208.66;105285;1263;94288;-82
2023/10/11 16:38:13;;;;;;;;;;;;;;;13.10;69.83;99205.24;105472;1259;106599;-82
2023/10/11 16:40:53;;;;;;;27.50;12.40;;;;;;;13.04;69.90;99211.77;105757;1259;95776;-85
2023/10/11 16:43:28;;;;;;;26.00;11.50;;;;;;;13.00;69.91;99212.46;105740;1254;107866;-81
2023/10/11 16:46:21;;;;;;;;;;;;;;;;;;;;;
2023/10/11 16:49:25;;;;;;;25.30;12.40;;;;;;;12.94;69.91;99205.30;105581;1259;95254;-83
2023/10/11 16:51:56;;;;;;;25.50;11.90;;;;;;;12.93;69.85;99202.34;105542;1254;109373;-86
2023/10/11 16:54:36;;;;;;;27.10;12.60;;;;;;;12.92;70.18;99207.54;105766;1259;95564;-84
